sensor_id;sensor_type;location;lat;lon;timestamp;P1;durP1;ratioP1;P2;durP2;ratioP2
41201;SDS011;26936;50.524;8.684;2024-03-22T00:00:44;40.97;;;19.55;;
41201;SDS011;26936;50.524;8.684;2024-03-22T00:03:09;42.58;;;19.70;;
41201;SDS011;26936;50.524;8.684;2024-03-22T00:05:35;43.55;;;20.80;;
41201;SDS011;26936;50.524;8.684;2024-03-22T00:08:00;41.50;;;19.92;;
41201;SDS011;26936;50.524;8.684;2024-03-22T00:10:26;38.78;;;19.40;;
41201;SDS011;26936;50.524;8.684;2024-03-22T00:12:51;35.10;;;18.07;;
41201;SDS011;26936;50.524;8.684;2024-03-22T00:15:17;36.67;;;18.02;;
41201;SDS011;26936;50.524;8.684;2024-03-22T00:17:42;35.70;;;17.67;;
41201;SDS011;26936;50.524;8.684;2024-03-22T00:20:08;39.83;;;18.60;;
41201;SDS011;26936;50.524;8.684;2024-03-22T00:22:34;40.35;;;18.98;;
41201;SDS011;26936;50.524;8.684;2024-03-22T00:24:59;41.28;;;19.33;;
41201;SDS011;26936;50.524;8.684;2024-03-22T00:27:24;40.08;;;19.75;;
41201;SDS011;26936;50.524;8.684;2024-03-22T00:29:50;39.78;;;19.10;;
41201;SDS011;26936;50.524;8.684;2024-03-22T00:32:15;42.25;;;19.80;;
41201;SDS011;26936;50.524;8.684;2024-03-22T00:34:40;36.95;;;18.48;;
41201;SDS011;26936;50.524;8.684;2024-03-22T00:37:06;38.00;;;17.70;;
41201;SDS011;26936;50.524;8.684;2024-03-22T00:39:31;40.05;;;18.55;;
41201;SDS011;26936;50.524;8.684;2024-03-22T00:41:57;40.80;;;19.00;;
41201;SDS011;26936;50.524;8.684;2024-03-22T00:44:22;36.83;;;18.20;;
41201;SDS011;26936;50.524;8.684;2024-03-22T00:46:47;33.83;;;17.08;;
41201;SDS011;26936;50.524;8.684;2024-03-22T00:49:13;35.73;;;16.97;;
41201;SDS011;26936;50.524;8.684;2024-03-22T00:51:38;35.63;;;17.10;;
41201;SDS011;26936;50.524;8.684;2024-03-22T00:54:03;33.92;;;17.55;;
41201;SDS011;26936;50.524;8.684;2024-03-22T00:56:28;36.60;;;17.83;;
41201;SDS011;26936;50.524;8.684;2024-03-22T00:58:54;35.72;;;16.50;;
41201;SDS011;26936;50.524;8.684;2024-03-22T01:01:19;33.42;;;16.63;;
41201;SDS011;26936;50.524;8.684;2024-03-22T01:03:44;36.60;;;17.15;;
41201;SDS011;26936;50.524;8.684;2024-03-22T01:06:10;34.63;;;16.35;;
41201;SDS011;26936;50.524;8.684;2024-03-22T01:08:35;33.47;;;16.83;;
41201;SDS011;26936;50.524;8.684;2024-03-22T01:11:01;29.30;;;15.48;;
41201;SDS011;26936;50.524;8.684;2024-03-22T01:13:26;32.80;;;15.68;;
41201;SDS011;26936;50.524;8.684;2024-03-22T01:15:51;30.02;;;14.80;;
41201;SDS011;26936;50.524;8.684;2024-03-22T01:18:17;33.88;;;16.10;;
41201;SDS011;26936;50.524;8.684;2024-03-22T01:20:42;38.55;;;18.05;;
41201;SDS011;26936;50.524;8.684;2024-03-22T01:23:08;39.08;;;18.23;;
41201;SDS011;26936;50.524;8.684;2024-03-22T01:25:33;44.73;;;19.60;;
41201;SDS011;26936;50.524;8.684;2024-03-22T01:27:58;41.40;;;19.30;;
41201;SDS011;26936;50.524;8.684;2024-03-22T01:30:24;39.13;;;18.58;;
41201;SDS011;26936;50.524;8.684;2024-03-22T01:32:53;45.38;;;19.85;;
41201;SDS011;26936;50.524;8.684;2024-03-22T01:35:18;42.88;;;20.30;;
41201;SDS011;26936;50.524;8.684;2024-03-22T01:37:44;40.80;;;19.10;;
41201;SDS011;26936;50.524;8.684;2024-03-22T01:40:09;39.97;;;18.52;;
41201;SDS011;26936;50.524;8.684;2024-03-22T01:42:35;36.53;;;17.17;;
41201;SDS011;26936;50.524;8.684;2024-03-22T01:45:00;39.60;;;18.65;;
41201;SDS011;26936;50.524;8.684;2024-03-22T01:47:25;37.90;;;18.08;;
41201;SDS011;26936;50.524;8.684;2024-03-22T01:49:52;44.00;;;18.92;;
41201;SDS011;26936;50.524;8.684;2024-03-22T01:52:20;43.42;;;19.25;;
41201;SDS011;26936;50.524;8.684;2024-03-22T01:54:45;43.97;;;19.10;;
41201;SDS011;26936;50.524;8.684;2024-03-22T01:57:10;38.35;;;18.33;;
41201;SDS011;26936;50.524;8.684;2024-03-22T01:59:36;42.22;;;18.33;;
41201;SDS011;26936;50.524;8.684;2024-03-22T02:02:02;42.33;;;19.17;;
41201;SDS011;26936;50.524;8.684;2024-03-22T02:04:27;38.85;;;18.25;;
41201;SDS011;26936;50.524;8.684;2024-03-22T02:06:53;42.72;;;18.30;;
41201;SDS011;26936;50.524;8.684;2024-03-22T02:09:18;38.88;;;18.92;;
41201;SDS011;26936;50.524;8.684;2024-03-22T02:11:45;42.08;;;18.65;;
41201;SDS011;26936;50.524;8.684;2024-03-22T02:14:11;33.03;;;16.27;;
41201;SDS011;26936;50.524;8.684;2024-03-22T02:16:36;36.60;;;18.37;;
41201;SDS011;26936;50.524;8.684;2024-03-22T02:19:04;40.60;;;18.40;;
41201;SDS011;26936;50.524;8.684;2024-03-22T02:21:29;40.57;;;18.50;;
41201;SDS011;26936;50.524;8.684;2024-03-22T02:23:54;38.73;;;17.53;;
41201;SDS011;26936;50.524;8.684;2024-03-22T02:26:20;41.55;;;18.90;;
41201;SDS011;26936;50.524;8.684;2024-03-22T02:28:45;35.55;;;17.20;;
41201;SDS011;26936;50.524;8.684;2024-03-22T02:31:10;39.10;;;17.35;;
41201;SDS011;26936;50.524;8.684;2024-03-22T02:33:36;38.55;;;16.52;;
41201;SDS011;26936;50.524;8.684;2024-03-22T02:36:01;42.88;;;18.27;;
41201;SDS011;26936;50.524;8.684;2024-03-22T02:38:27;39.15;;;16.98;;
41201;SDS011;26936;50.524;8.684;2024-03-22T02:40:52;43.75;;;17.85;;
41201;SDS011;26936;50.524;8.684;2024-03-22T02:43:19;40.05;;;17.38;;
41201;SDS011;26936;50.524;8.684;2024-03-22T02:45:46;38.08;;;17.15;;
41201;SDS011;26936;50.524;8.684;2024-03-22T02:48:11;40.50;;;18.38;;
41201;SDS011;26936;50.524;8.684;2024-03-22T02:50:37;40.65;;;17.40;;
41201;SDS011;26936;50.524;8.684;2024-03-22T02:53:03;42.38;;;17.50;;
41201;SDS011;26936;50.524;8.684;2024-03-22T02:55:29;49.28;;;20.73;;
41201;SDS011;26936;50.524;8.684;2024-03-22T02:57:58;40.83;;;18.88;;
41201;SDS011;26936;50.524;8.684;2024-03-22T03:00:24;45.03;;;19.77;;
41201;SDS011;26936;50.524;8.684;2024-03-22T03:02:49;39.38;;;18.15;;
41201;SDS011;26936;50.524;8.684;2024-03-22T03:05:15;43.95;;;18.65;;
41201;SDS011;26936;50.524;8.684;2024-03-22T03:07:40;51.72;;;21.92;;
41201;SDS011;26936;50.524;8.684;2024-03-22T03:10:06;45.45;;;20.20;;
41201;SDS011;26936;50.524;8.684;2024-03-22T03:12:32;42.22;;;18.00;;
41201;SDS011;26936;50.524;8.684;2024-03-22T03:14:57;42.35;;;19.25;;
41201;SDS011;26936;50.524;8.684;2024-03-22T03:17:23;40.03;;;18.35;;
41201;SDS011;26936;50.524;8.684;2024-03-22T03:19:48;46.95;;;20.20;;
41201;SDS011;26936;50.524;8.684;2024-03-22T03:22:13;43.75;;;19.67;;
41201;SDS011;26936;50.524;8.684;2024-03-22T03:24:39;42.92;;;18.58;;
41201;SDS011;26936;50.524;8.684;2024-03-22T03:27:04;41.55;;;17.80;;
41201;SDS011;26936;50.524;8.684;2024-03-22T03:29:29;45.40;;;18.40;;
41201;SDS011;26936;50.524;8.684;2024-03-22T03:31:55;44.63;;;18.75;;
41201;SDS011;26936;50.524;8.684;2024-03-22T03:34:21;51.25;;;20.30;;
41201;SDS011;26936;50.524;8.684;2024-03-22T03:36:47;42.17;;;18.52;;
41201;SDS011;26936;50.524;8.684;2024-03-22T03:39:12;39.53;;;17.40;;
41201;SDS011;26936;50.524;8.684;2024-03-22T03:41:38;45.35;;;19.30;;
41201;SDS011;26936;50.524;8.684;2024-03-22T03:44:03;40.72;;;17.50;;
41201;SDS011;26936;50.524;8.684;2024-03-22T03:46:29;39.28;;;17.40;;
41201;SDS011;26936;50.524;8.684;2024-03-22T03:48:54;36.88;;;16.20;;
41201;SDS011;26936;50.524;8.684;2024-03-22T03:51:20;39.67;;;16.23;;
41201;SDS011;26936;50.524;8.684;2024-03-22T03:53:45;42.10;;;17.38;;
41201;SDS011;26936;50.524;8.684;2024-03-22T03:56:10;39.13;;;18.05;;
41201;SDS011;26936;50.524;8.684;2024-03-22T03:58:36;42.28;;;18.58;;
41201;SDS011;26936;50.524;8.684;2024-03-22T04:01:08;42.63;;;17.27;;
41201;SDS011;26936;50.524;8.684;2024-03-22T04:03:34;45.93;;;19.30;;
41201;SDS011;26936;50.524;8.684;2024-03-22T04:05:59;47.30;;;19.83;;
41201;SDS011;26936;50.524;8.684;2024-03-22T04:08:25;42.05;;;18.42;;
41201;SDS011;26936;50.524;8.684;2024-03-22T04:10:54;41.25;;;18.27;;
41201;SDS011;26936;50.524;8.684;2024-03-22T04:13:21;45.22;;;19.17;;
41201;SDS011;26936;50.524;8.684;2024-03-22T04:15:47;45.17;;;20.00;;
41201;SDS011;26936;50.524;8.684;2024-03-22T04:18:13;45.00;;;17.77;;
41201;SDS011;26936;50.524;8.684;2024-03-22T04:20:38;46.17;;;20.15;;
41201;SDS011;26936;50.524;8.684;2024-03-22T04:23:03;47.65;;;19.85;;
41201;SDS011;26936;50.524;8.684;2024-03-22T04:25:28;47.80;;;20.67;;
41201;SDS011;26936;50.524;8.684;2024-03-22T04:27:54;47.87;;;21.07;;
41201;SDS011;26936;50.524;8.684;2024-03-22T04:30:19;46.03;;;20.50;;
41201;SDS011;26936;50.524;8.684;2024-03-22T04:32:48;47.15;;;20.33;;
41201;SDS011;26936;50.524;8.684;2024-03-22T04:35:13;46.35;;;19.70;;
41201;SDS011;26936;50.524;8.684;2024-03-22T04:37:38;45.42;;;19.95;;
41201;SDS011;26936;50.524;8.684;2024-03-22T04:40:04;47.05;;;21.08;;
41201;SDS011;26936;50.524;8.684;2024-03-22T04:42:30;49.28;;;20.60;;
41201;SDS011;26936;50.524;8.684;2024-03-22T04:44:56;53.05;;;23.20;;
41201;SDS011;26936;50.524;8.684;2024-03-22T04:47:22;44.33;;;19.17;;
41201;SDS011;26936;50.524;8.684;2024-03-22T04:49:48;45.60;;;20.10;;
41201;SDS011;26936;50.524;8.684;2024-03-22T04:52:13;42.17;;;18.55;;
41201;SDS011;26936;50.524;8.684;2024-03-22T04:54:38;42.60;;;19.60;;
41201;SDS011;26936;50.524;8.684;2024-03-22T04:57:04;47.00;;;21.67;;
41201;SDS011;26936;50.524;8.684;2024-03-22T04:59:29;43.77;;;20.40;;
41201;SDS011;26936;50.524;8.684;2024-03-22T05:01:54;40.78;;;19.23;;
41201;SDS011;26936;50.524;8.684;2024-03-22T05:04:19;44.53;;;19.70;;
41201;SDS011;26936;50.524;8.684;2024-03-22T05:06:45;41.97;;;19.57;;
41201;SDS011;26936;50.524;8.684;2024-03-22T05:09:10;49.83;;;21.57;;
41201;SDS011;26936;50.524;8.684;2024-03-22T05:11:35;43.35;;;19.33;;
41201;SDS011;26936;50.524;8.684;2024-03-22T05:14:01;48.50;;;20.73;;
41201;SDS011;26936;50.524;8.684;2024-03-22T05:16:26;40.90;;;20.40;;
41201;SDS011;26936;50.524;8.684;2024-03-22T05:18:51;42.17;;;19.40;;
41201;SDS011;26936;50.524;8.684;2024-03-22T05:21:17;42.95;;;19.52;;
41201;SDS011;26936;50.524;8.684;2024-03-22T05:23:42;43.53;;;20.23;;
41201;SDS011;26936;50.524;8.684;2024-03-22T05:26:07;43.08;;;18.90;;
41201;SDS011;26936;50.524;8.684;2024-03-22T05:28:32;43.20;;;19.87;;
41201;SDS011;26936;50.524;8.684;2024-03-22T05:30:58;44.53;;;20.40;;
41201;SDS011;26936;50.524;8.684;2024-03-22T05:33:23;45.20;;;19.95;;
41201;SDS011;26936;50.524;8.684;2024-03-22T05:35:49;41.60;;;18.58;;
41201;SDS011;26936;50.524;8.684;2024-03-22T05:38:14;42.13;;;19.63;;
41201;SDS011;26936;50.524;8.684;2024-03-22T05:40:39;40.30;;;19.55;;
41201;SDS011;26936;50.524;8.684;2024-03-22T05:43:05;40.63;;;19.25;;
41201;SDS011;26936;50.524;8.684;2024-03-22T05:45:30;41.30;;;18.85;;
41201;SDS011;26936;50.524;8.684;2024-03-22T05:47:56;43.13;;;19.08;;
41201;SDS011;26936;50.524;8.684;2024-03-22T05:50:22;41.67;;;18.73;;
41201;SDS011;26936;50.524;8.684;2024-03-22T05:52:47;41.58;;;19.00;;
41201;SDS011;26936;50.524;8.684;2024-03-22T05:55:12;39.03;;;18.85;;
41201;SDS011;26936;50.524;8.684;2024-03-22T05:57:38;36.60;;;18.83;;
41201;SDS011;26936;50.524;8.684;2024-03-22T06:00:04;39.97;;;18.77;;
41201;SDS011;26936;50.524;8.684;2024-03-22T06:02:31;37.20;;;18.02;;
41201;SDS011;26936;50.524;8.684;2024-03-22T06:04:57;37.30;;;18.45;;
41201;SDS011;26936;50.524;8.684;2024-03-22T06:07:23;37.00;;;19.00;;
41201;SDS011;26936;50.524;8.684;2024-03-22T06:09:48;33.10;;;16.77;;
41201;SDS011;26936;50.524;8.684;2024-03-22T06:12:14;34.95;;;18.33;;
41201;SDS011;26936;50.524;8.684;2024-03-22T06:14:41;36.65;;;17.42;;
41201;SDS011;26936;50.524;8.684;2024-03-22T06:17:08;36.92;;;18.35;;
41201;SDS011;26936;50.524;8.684;2024-03-22T06:19:33;34.42;;;16.23;;
41201;SDS011;26936;50.524;8.684;2024-03-22T06:22:00;34.83;;;17.00;;
41201;SDS011;26936;50.524;8.684;2024-03-22T06:24:25;38.50;;;18.75;;
41201;SDS011;26936;50.524;8.684;2024-03-22T06:26:50;35.45;;;17.90;;
41201;SDS011;26936;50.524;8.684;2024-03-22T06:29:15;37.73;;;17.67;;
41201;SDS011;26936;50.524;8.684;2024-03-22T06:31:43;38.30;;;16.90;;
41201;SDS011;26936;50.524;8.684;2024-03-22T06:34:09;31.40;;;16.63;;
41201;SDS011;26936;50.524;8.684;2024-03-22T06:36:34;32.92;;;17.20;;
41201;SDS011;26936;50.524;8.684;2024-03-22T06:39:00;33.78;;;17.98;;
41201;SDS011;26936;50.524;8.684;2024-03-22T06:41:25;34.83;;;17.07;;
41201;SDS011;26936;50.524;8.684;2024-03-22T06:43:51;35.05;;;17.13;;
41201;SDS011;26936;50.524;8.684;2024-03-22T06:46:17;35.38;;;16.95;;
41201;SDS011;26936;50.524;8.684;2024-03-22T06:48:42;31.77;;;17.10;;
41201;SDS011;26936;50.524;8.684;2024-03-22T06:51:08;31.40;;;16.80;;
41201;SDS011;26936;50.524;8.684;2024-03-22T06:53:33;34.03;;;17.15;;
41201;SDS011;26936;50.524;8.684;2024-03-22T06:55:59;34.03;;;17.33;;
41201;SDS011;26936;50.524;8.684;2024-03-22T06:58:24;31.02;;;15.88;;
41201;SDS011;26936;50.524;8.684;2024-03-22T07:00:51;31.08;;;15.63;;
41201;SDS011;26936;50.524;8.684;2024-03-22T07:03:16;31.13;;;15.23;;
41201;SDS011;26936;50.524;8.684;2024-03-22T07:05:42;31.90;;;16.75;;
41201;SDS011;26936;50.524;8.684;2024-03-22T07:08:07;32.22;;;16.33;;
41201;SDS011;26936;50.524;8.684;2024-03-22T07:10:33;33.65;;;16.80;;
41201;SDS011;26936;50.524;8.684;2024-03-22T07:12:58;31.95;;;15.55;;
41201;SDS011;26936;50.524;8.684;2024-03-22T07:15:24;30.90;;;15.20;;
41201;SDS011;26936;50.524;8.684;2024-03-22T07:17:49;29.85;;;15.48;;
41201;SDS011;26936;50.524;8.684;2024-03-22T07:20:15;32.83;;;15.85;;
41201;SDS011;26936;50.524;8.684;2024-03-22T07:22:41;28.92;;;15.57;;
41201;SDS011;26936;50.524;8.684;2024-03-22T07:25:07;29.73;;;15.45;;
41201;SDS011;26936;50.524;8.684;2024-03-22T07:27:34;28.55;;;14.95;;
41201;SDS011;26936;50.524;8.684;2024-03-22T07:30:02;29.23;;;14.65;;
41201;SDS011;26936;50.524;8.684;2024-03-22T07:32:29;31.42;;;14.93;;
41201;SDS011;26936;50.524;8.684;2024-03-22T07:34:55;29.63;;;15.05;;
41201;SDS011;26936;50.524;8.684;2024-03-22T07:37:21;28.38;;;15.00;;
41201;SDS011;26936;50.524;8.684;2024-03-22T07:39:47;32.42;;;15.93;;
41201;SDS011;26936;50.524;8.684;2024-03-22T07:42:13;26.77;;;14.82;;
41201;SDS011;26936;50.524;8.684;2024-03-22T07:44:41;30.73;;;15.55;;
41201;SDS011;26936;50.524;8.684;2024-03-22T07:47:07;33.58;;;16.38;;
41201;SDS011;26936;50.524;8.684;2024-03-22T07:49:34;29.48;;;16.23;;
41201;SDS011;26936;50.524;8.684;2024-03-22T07:52:02;29.42;;;15.85;;
41201;SDS011;26936;50.524;8.684;2024-03-22T07:54:29;30.50;;;16.17;;
41201;SDS011;26936;50.524;8.684;2024-03-22T07:56:54;25.85;;;15.20;;
41201;SDS011;26936;50.524;8.684;2024-03-22T07:59:19;29.45;;;15.80;;
41201;SDS011;26936;50.524;8.684;2024-03-22T08:01:44;31.03;;;15.30;;
41201;SDS011;26936;50.524;8.684;2024-03-22T08:04:11;29.75;;;15.25;;
41201;SDS011;26936;50.524;8.684;2024-03-22T08:06:36;28.70;;;14.27;;
41201;SDS011;26936;50.524;8.684;2024-03-22T08:09:01;29.60;;;15.38;;
41201;SDS011;26936;50.524;8.684;2024-03-22T08:11:28;26.40;;;15.18;;
41201;SDS011;26936;50.524;8.684;2024-03-22T08:13:53;30.83;;;15.60;;
41201;SDS011;26936;50.524;8.684;2024-03-22T08:16:26;25.27;;;14.77;;
41201;SDS011;26936;50.524;8.684;2024-03-22T08:18:52;26.08;;;14.55;;
41201;SDS011;26936;50.524;8.684;2024-03-22T08:21:17;28.83;;;16.58;;
41201;SDS011;26936;50.524;8.684;2024-03-22T08:23:42;28.23;;;15.50;;
41201;SDS011;26936;50.524;8.684;2024-03-22T08:26:08;30.67;;;16.58;;
41201;SDS011;26936;50.524;8.684;2024-03-22T08:28:33;25.33;;;15.07;;
41201;SDS011;26936;50.524;8.684;2024-03-22T08:30:58;27.65;;;15.15;;
41201;SDS011;26936;50.524;8.684;2024-03-22T08:33:29;27.75;;;14.68;;
41201;SDS011;26936;50.524;8.684;2024-03-22T08:35:54;25.40;;;14.43;;
41201;SDS011;26936;50.524;8.684;2024-03-22T08:38:19;28.42;;;15.48;;
41201;SDS011;26936;50.524;8.684;2024-03-22T08:40:44;25.92;;;15.13;;
41201;SDS011;26936;50.524;8.684;2024-03-22T08:43:10;25.75;;;14.00;;
41201;SDS011;26936;50.524;8.684;2024-03-22T08:45:35;29.75;;;16.90;;
41201;SDS011;26936;50.524;8.684;2024-03-22T08:48:01;32.38;;;16.33;;
41201;SDS011;26936;50.524;8.684;2024-03-22T08:50:26;28.92;;;16.48;;
41201;SDS011;26936;50.524;8.684;2024-03-22T08:52:51;30.30;;;15.35;;
41201;SDS011;26936;50.524;8.684;2024-03-22T08:55:17;30.88;;;15.82;;
41201;SDS011;26936;50.524;8.684;2024-03-22T08:57:43;28.73;;;15.05;;
41201;SDS011;26936;50.524;8.684;2024-03-22T09:00:08;28.50;;;15.88;;
41201;SDS011;26936;50.524;8.684;2024-03-22T09:02:34;27.70;;;14.57;;
41201;SDS011;26936;50.524;8.684;2024-03-22T09:05:00;23.73;;;13.70;;
41201;SDS011;26936;50.524;8.684;2024-03-22T09:07:25;23.20;;;13.65;;
41201;SDS011;26936;50.524;8.684;2024-03-22T09:09:50;24.03;;;13.77;;
41201;SDS011;26936;50.524;8.684;2024-03-22T09:12:15;25.20;;;13.87;;
41201;SDS011;26936;50.524;8.684;2024-03-22T09:14:41;23.52;;;14.27;;
41201;SDS011;26936;50.524;8.684;2024-03-22T09:17:07;26.48;;;13.98;;
41201;SDS011;26936;50.524;8.684;2024-03-22T09:19:32;23.35;;;13.38;;
41201;SDS011;26936;50.524;8.684;2024-03-22T09:21:57;28.35;;;14.50;;
41201;SDS011;26936;50.524;8.684;2024-03-22T09:24:23;24.73;;;13.93;;
41201;SDS011;26936;50.524;8.684;2024-03-22T09:26:48;22.13;;;14.40;;
41201;SDS011;26936;50.524;8.684;2024-03-22T09:29:14;25.10;;;14.05;;
41201;SDS011;26936;50.524;8.684;2024-03-22T09:31:39;23.40;;;12.93;;
41201;SDS011;26936;50.524;8.684;2024-03-22T09:34:04;25.02;;;13.88;;
41201;SDS011;26936;50.524;8.684;2024-03-22T09:36:30;24.25;;;14.40;;
41201;SDS011;26936;50.524;8.684;2024-03-22T09:38:59;24.13;;;14.07;;
41201;SDS011;26936;50.524;8.684;2024-03-22T09:41:25;22.40;;;13.85;;
41201;SDS011;26936;50.524;8.684;2024-03-22T09:43:53;22.83;;;14.57;;
41201;SDS011;26936;50.524;8.684;2024-03-22T09:46:21;23.75;;;13.82;;
41201;SDS011;26936;50.524;8.684;2024-03-22T09:48:47;30.20;;;17.85;;
41201;SDS011;26936;50.524;8.684;2024-03-22T09:51:15;20.80;;;13.13;;
41201;SDS011;26936;50.524;8.684;2024-03-22T09:53:42;22.48;;;12.88;;
41201;SDS011;26936;50.524;8.684;2024-03-22T09:56:09;22.25;;;12.40;;
41201;SDS011;26936;50.524;8.684;2024-03-22T09:58:39;23.77;;;12.52;;
41201;SDS011;26936;50.524;8.684;2024-03-22T10:01:05;19.67;;;12.45;;
41201;SDS011;26936;50.524;8.684;2024-03-22T10:03:31;20.42;;;12.57;;
41201;SDS011;26936;50.524;8.684;2024-03-22T10:05:56;24.13;;;12.70;;
41201;SDS011;26936;50.524;8.684;2024-03-22T10:08:22;23.23;;;12.73;;
41201;SDS011;26936;50.524;8.684;2024-03-22T10:10:47;20.95;;;12.60;;
41201;SDS011;26936;50.524;8.684;2024-03-22T10:13:12;21.15;;;13.02;;
41201;SDS011;26936;50.524;8.684;2024-03-22T10:15:37;19.50;;;11.93;;
41201;SDS011;26936;50.524;8.684;2024-03-22T10:18:03;17.58;;;11.15;;
41201;SDS011;26936;50.524;8.684;2024-03-22T10:20:29;13.55;;;8.25;;
41201;SDS011;26936;50.524;8.684;2024-03-22T10:22:55;13.63;;;8.52;;
41201;SDS011;26936;50.524;8.684;2024-03-22T10:25:22;13.50;;;8.18;;
41201;SDS011;26936;50.524;8.684;2024-03-22T10:27:48;14.50;;;8.35;;
41201;SDS011;26936;50.524;8.684;2024-03-22T10:30:15;15.70;;;7.90;;
41201;SDS011;26936;50.524;8.684;2024-03-22T10:32:42;15.82;;;8.95;;
41201;SDS011;26936;50.524;8.684;2024-03-22T10:35:11;17.35;;;8.85;;
41201;SDS011;26936;50.524;8.684;2024-03-22T10:37:38;14.23;;;8.88;;
41201;SDS011;26936;50.524;8.684;2024-03-22T10:40:04;17.27;;;8.75;;
41201;SDS011;26936;50.524;8.684;2024-03-22T10:42:37;14.43;;;8.80;;
41201;SDS011;26936;50.524;8.684;2024-03-22T10:47:36;12.70;;;8.10;;
41201;SDS011;26936;50.524;8.684;2024-03-22T10:50:09;12.40;;;8.50;;
41201;SDS011;26936;50.524;8.684;2024-03-22T10:53:11;16.88;;;8.40;;
41201;SDS011;26936;50.524;8.684;2024-03-22T10:55:35;14.85;;;8.77;;
41201;SDS011;26936;50.524;8.684;2024-03-22T10:58:03;16.10;;;9.23;;
41201;SDS011;26936;50.524;8.684;2024-03-22T11:00:29;13.80;;;8.35;;
41201;SDS011;26936;50.524;8.684;2024-03-22T11:03:01;18.05;;;8.15;;
41201;SDS011;26936;50.524;8.684;2024-03-22T11:05:27;17.00;;;9.23;;
41201;SDS011;26936;50.524;8.684;2024-03-22T11:08:02;15.43;;;8.77;;
41201;SDS011;26936;50.524;8.684;2024-03-22T11:10:34;14.88;;;8.45;;
41201;SDS011;26936;50.524;8.684;2024-03-22T11:13:03;13.77;;;8.52;;
41201;SDS011;26936;50.524;8.684;2024-03-22T11:15:38;12.93;;;7.63;;
41201;SDS011;26936;50.524;8.684;2024-03-22T11:18:23;12.95;;;8.10;;
41201;SDS011;26936;50.524;8.684;2024-03-22T11:20:49;16.10;;;8.32;;
41201;SDS011;26936;50.524;8.684;2024-03-22T11:23:14;11.05;;;7.20;;
41201;SDS011;26936;50.524;8.684;2024-03-22T11:25:39;12.93;;;8.23;;
41201;SDS011;26936;50.524;8.684;2024-03-22T11:28:05;14.27;;;7.93;;
41201;SDS011;26936;50.524;8.684;2024-03-22T11:30:32;13.73;;;7.27;;
41201;SDS011;26936;50.524;8.684;2024-03-22T11:33:01;14.73;;;7.38;;
41201;SDS011;26936;50.524;8.684;2024-03-22T11:35:27;12.65;;;8.23;;
41201;SDS011;26936;50.524;8.684;2024-03-22T11:37:52;11.18;;;7.15;;
41201;SDS011;26936;50.524;8.684;2024-03-22T11:40:18;13.25;;;7.50;;
41201;SDS011;26936;50.524;8.684;2024-03-22T11:42:47;15.30;;;7.70;;
41201;SDS011;26936;50.524;8.684;2024-03-22T11:45:15;10.23;;;6.95;;
41201;SDS011;26936;50.524;8.684;2024-03-22T11:47:42;13.20;;;7.40;;
41201;SDS011;26936;50.524;8.684;2024-03-22T11:50:08;12.95;;;6.85;;
41201;SDS011;26936;50.524;8.684;2024-03-22T11:52:38;14.27;;;7.35;;
41201;SDS011;26936;50.524;8.684;2024-03-22T11:55:05;11.85;;;7.05;;
41201;SDS011;26936;50.524;8.684;2024-03-22T11:57:31;11.82;;;6.95;;
41201;SDS011;26936;50.524;8.684;2024-03-22T12:00:00;11.55;;;7.20;;
41201;SDS011;26936;50.524;8.684;2024-03-22T12:02:26;12.70;;;6.57;;
41201;SDS011;26936;50.524;8.684;2024-03-22T12:04:52;11.82;;;6.65;;
41201;SDS011;26936;50.524;8.684;2024-03-22T12:07:17;10.85;;;6.53;;
41201;SDS011;26936;50.524;8.684;2024-03-22T12:09:43;10.35;;;7.35;;
41201;SDS011;26936;50.524;8.684;2024-03-22T12:12:09;11.90;;;7.15;;
41201;SDS011;26936;50.524;8.684;2024-03-22T12:14:36;13.13;;;7.35;;
41201;SDS011;26936;50.524;8.684;2024-03-22T12:17:02;12.52;;;6.65;;
41201;SDS011;26936;50.524;8.684;2024-03-22T12:19:28;11.63;;;6.53;;
41201;SDS011;26936;50.524;8.684;2024-03-22T12:21:54;11.68;;;6.47;;
41201;SDS011;26936;50.524;8.684;2024-03-22T12:24:19;12.25;;;7.15;;
41201;SDS011;26936;50.524;8.684;2024-03-22T12:26:47;9.43;;;6.15;;
41201;SDS011;26936;50.524;8.684;2024-03-22T12:29:18;12.45;;;6.75;;
41201;SDS011;26936;50.524;8.684;2024-03-22T12:31:44;13.02;;;7.00;;
41201;SDS011;26936;50.524;8.684;2024-03-22T12:34:12;11.95;;;6.57;;
41201;SDS011;26936;50.524;8.684;2024-03-22T12:36:38;10.95;;;6.25;;
41201;SDS011;26936;50.524;8.684;2024-03-22T12:39:04;11.20;;;6.50;;
41201;SDS011;26936;50.524;8.684;2024-03-22T12:41:29;11.93;;;6.53;;
41201;SDS011;26936;50.524;8.684;2024-03-22T12:43:56;11.60;;;6.47;;
41201;SDS011;26936;50.524;8.684;2024-03-22T12:46:21;13.02;;;6.20;;
41201;SDS011;26936;50.524;8.684;2024-03-22T12:48:49;10.48;;;6.03;;
41201;SDS011;26936;50.524;8.684;2024-03-22T12:51:15;9.02;;;5.45;;
41201;SDS011;26936;50.524;8.684;2024-03-22T12:53:40;8.95;;;5.88;;
41201;SDS011;26936;50.524;8.684;2024-03-22T12:56:06;8.47;;;5.17;;
41201;SDS011;26936;50.524;8.684;2024-03-22T12:58:31;10.65;;;5.28;;
41201;SDS011;26936;50.524;8.684;2024-03-22T13:00:57;10.52;;;5.10;;
41201;SDS011;26936;50.524;8.684;2024-03-22T13:03:23;9.55;;;5.22;;
41201;SDS011;26936;50.524;8.684;2024-03-22T13:05:48;10.77;;;5.18;;
41201;SDS011;26936;50.524;8.684;2024-03-22T13:08:14;9.45;;;5.65;;
41201;SDS011;26936;50.524;8.684;2024-03-22T13:10:39;9.00;;;5.15;;
41201;SDS011;26936;50.524;8.684;2024-03-22T13:13:08;11.55;;;5.90;;
41201;SDS011;26936;50.524;8.684;2024-03-22T13:15:33;10.95;;;6.13;;
41201;SDS011;26936;50.524;8.684;2024-03-22T13:18:00;10.05;;;5.38;;
41201;SDS011;26936;50.524;8.684;2024-03-22T13:20:25;13.73;;;5.85;;
41201;SDS011;26936;50.524;8.684;2024-03-22T13:22:51;12.73;;;6.35;;
41201;SDS011;26936;50.524;8.684;2024-03-22T13:25:16;10.77;;;5.68;;
41201;SDS011;26936;50.524;8.684;2024-03-22T13:27:41;9.68;;;5.75;;
41201;SDS011;26936;50.524;8.684;2024-03-22T13:30:07;11.32;;;5.38;;
41201;SDS011;26936;50.524;8.684;2024-03-22T13:32:37;10.13;;;5.70;;
41201;SDS011;26936;50.524;8.684;2024-03-22T13:35:02;10.73;;;5.50;;
41201;SDS011;26936;50.524;8.684;2024-03-22T13:37:28;9.27;;;6.10;;
41201;SDS011;26936;50.524;8.684;2024-03-22T13:39:53;11.45;;;6.15;;
41201;SDS011;26936;50.524;8.684;2024-03-22T13:42:19;10.27;;;5.93;;
41201;SDS011;26936;50.524;8.684;2024-03-22T13:44:44;9.30;;;5.53;;
41201;SDS011;26936;50.524;8.684;2024-03-22T13:47:10;10.20;;;5.78;;
41201;SDS011;26936;50.524;8.684;2024-03-22T13:49:35;11.10;;;5.20;;
41201;SDS011;26936;50.524;8.684;2024-03-22T13:52:01;8.68;;;4.65;;
41201;SDS011;26936;50.524;8.684;2024-03-22T13:54:26;6.93;;;4.50;;
41201;SDS011;26936;50.524;8.684;2024-03-22T13:56:51;11.30;;;4.67;;
41201;SDS011;26936;50.524;8.684;2024-03-22T13:59:17;6.85;;;4.63;;
41201;SDS011;26936;50.524;8.684;2024-03-22T14:01:42;11.00;;;4.93;;
41201;SDS011;26936;50.524;8.684;2024-03-22T14:04:10;10.00;;;5.45;;
41201;SDS011;26936;50.524;8.684;2024-03-22T14:06:36;11.05;;;5.35;;
41201;SDS011;26936;50.524;8.684;2024-03-22T14:09:02;11.77;;;4.60;;
41201;SDS011;26936;50.524;8.684;2024-03-22T14:11:29;9.25;;;5.13;;
41201;SDS011;26936;50.524;8.684;2024-03-22T14:13:58;10.05;;;4.95;;
41201;SDS011;26936;50.524;8.684;2024-03-22T14:16:24;10.60;;;5.43;;
41201;SDS011;26936;50.524;8.684;2024-03-22T14:18:49;11.05;;;5.60;;
41201;SDS011;26936;50.524;8.684;2024-03-22T14:21:15;10.30;;;5.70;;